sensor_id;sensor_type;location;lat;lon;timestamp;pressure;altitude;pressure_sealevel;temperature;humidity
35716;BME280;21840;44.920;8.616;2023-03-22T00:00:37;100356.53;;;16.47;49.83
35716;BME280;21840;44.920;8.616;2023-03-22T00:03:04;100357.94;;;16.66;49.40
35716;BME280;21840;44.920;8.616;2023-03-22T00:05:30;100352.66;;;16.66;49.20
35716;BME280;21840;44.920;8.616;2023-03-22T00:07:56;100351.78;;;16.74;48.79
35716;BME280;21840;44.920;8.616;2023-03-22T00:10:25;100355.97;;;16.68;48.97
35716;BME280;21840;44.920;8.616;2023-03-22T00:12:53;100350.50;;;16.61;48.77
35716;BME280;21840;44.920;8.616;2023-03-22T00:15:18;100357.22;;;16.49;48.15
35716;BME280;21840;44.920;8.616;2023-03-22T00:17:44;100346.03;;;16.31;49.35
35716;BME280;21840;44.920;8.616;2023-03-22T00:20:10;100355.63;;;16.32;50.16
35716;BME280;21840;44.920;8.616;2023-03-22T00:22:37;100356.44;;;15.93;50.78
35716;BME280;21840;44.920;8.616;2023-03-22T00:25:04;100354.34;;;16.20;50.10
35716;BME280;21840;44.920;8.616;2023-03-22T00:27:30;100352.88;;;16.17;49.97
35716;BME280;21840;44.920;8.616;2023-03-22T00:29:55;100354.19;;;16.21;49.29
35716;BME280;21840;44.920;8.616;2023-03-22T00:32:21;100350.84;;;15.63;49.74
35716;BME280;21840;44.920;8.616;2023-03-22T00:34:48;100351.53;;;15.73;49.53
35716;BME280;21840;44.920;8.616;2023-03-22T00:37:14;100362.59;;;15.44;49.42
35716;BME280;21840;44.920;8.616;2023-03-22T00:39:43;100368.00;;;14.77;51.14
35716;BME280;21840;44.920;8.616;2023-03-22T00:42:09;100367.91;;;14.95;50.86
35716;BME280;21840;44.920;8.616;2023-03-22T00:44:35;100362.25;;;14.90;51.06
35716;BME280;21840;44.920;8.616;2023-03-22T00:47:01;100359.44;;;15.00;50.41
35716;BME280;21840;44.920;8.616;2023-03-22T00:49:26;100356.47;;;14.78;51.02
35716;BME280;21840;44.920;8.616;2023-03-22T00:51:52;100357.63;;;14.92;50.74
35716;BME280;21840;44.920;8.616;2023-03-22T00:54:18;100344.25;;;15.10;50.16
35716;BME280;21840;44.920;8.616;2023-03-22T00:56:44;100337.81;;;15.13;50.20
35716;BME280;21840;44.920;8.616;2023-03-22T00:59:13;100329.38;;;15.01;50.19
35716;BME280;21840;44.920;8.616;2023-03-22T01:01:40;100333.66;;;14.94;50.27
35716;BME280;21840;44.920;8.616;2023-03-22T01:04:06;100333.34;;;14.97;50.17
35716;BME280;21840;44.920;8.616;2023-03-22T01:06:32;100341.75;;;14.84;50.88
35716;BME280;21840;44.920;8.616;2023-03-22T01:08:58;100340.22;;;14.65;51.44
35716;BME280;21840;44.920;8.616;2023-03-22T01:11:25;100334.34;;;15.04;51.07
35716;BME280;21840;44.920;8.616;2023-03-22T01:13:51;100332.72;;;14.52;51.51
35716;BME280;21840;44.920;8.616;2023-03-22T01:16:17;100332.00;;;14.84;50.44
35716;BME280;21840;44.920;8.616;2023-03-22T01:18:43;100331.84;;;15.02;49.93
35716;BME280;21840;44.920;8.616;2023-03-22T01:21:09;100337.78;;;14.80;50.27
35716;BME280;21840;44.920;8.616;2023-03-22T01:23:36;100345.50;;;14.65;50.50
35716;BME280;21840;44.920;8.616;2023-03-22T01:26:02;100348.47;;;14.54;50.81
35716;BME280;21840;44.920;8.616;2023-03-22T01:28:28;100342.72;;;14.75;50.15
35716;BME280;21840;44.920;8.616;2023-03-22T01:30:54;100346.03;;;14.69;50.39
35716;BME280;21840;44.920;8.616;2023-03-22T01:33:20;100347.16;;;14.58;50.54
35716;BME280;21840;44.920;8.616;2023-03-22T01:35:46;100344.66;;;14.14;51.43
35716;BME280;21840;44.920;8.616;2023-03-22T01:38:12;100346.25;;;14.49;51.01
35716;BME280;21840;44.920;8.616;2023-03-22T01:40:47;100355.94;;;14.32;51.33
35716;BME280;21840;44.920;8.616;2023-03-22T01:43:14;100352.47;;;14.66;50.55
35716;BME280;21840;44.920;8.616;2023-03-22T01:45:51;100355.13;;;14.74;50.02
35716;BME280;21840;44.920;8.616;2023-03-22T01:48:44;100353.53;;;14.98;49.65
35716;BME280;21840;44.920;8.616;2023-03-22T01:51:18;100351.16;;;14.78;49.94
35716;BME280;21840;44.920;8.616;2023-03-22T01:54:17;100348.19;;;14.81;50.00
35716;BME280;21840;44.920;8.616;2023-03-22T01:56:43;100350.34;;;14.78;50.37
35716;BME280;21840;44.920;8.616;2023-03-22T01:59:15;100347.91;;;14.93;49.81
35716;BME280;21840;44.920;8.616;2023-03-22T02:02:07;100337.53;;;14.49;50.83
35716;BME280;21840;44.920;8.616;2023-03-22T02:04:36;100341.88;;;14.66;50.71
35716;BME280;21840;44.920;8.616;2023-03-22T02:07:07;100336.19;;;14.44;52.17
35716;BME280;21840;44.920;8.616;2023-03-22T02:09:36;100337.81;;;14.37;52.78
35716;BME280;21840;44.920;8.616;2023-03-22T02:28:51;100343.84;;;14.21;52.97
35716;BME280;21840;44.920;8.616;2023-03-22T02:31:47;100344.78;;;14.46;52.04
35716;BME280;21840;44.920;8.616;2023-03-22T02:51:17;100336.31;;;14.35;52.46
35716;BME280;21840;44.920;8.616;2023-03-22T02:57:09;100346.50;;;14.21;52.70
35716;BME280;21840;44.920;8.616;2023-03-22T02:59:37;100345.31;;;14.16;52.46
35716;BME280;21840;44.920;8.616;2023-03-22T03:02:08;100347.34;;;14.30;52.23
35716;BME280;21840;44.920;8.616;2023-03-22T03:04:38;100343.41;;;14.34;52.29
35716;BME280;21840;44.920;8.616;2023-03-22T03:07:08;100343.22;;;14.28;52.86
35716;BME280;21840;44.920;8.616;2023-03-22T03:09:37;100348.88;;;14.33;52.81
35716;BME280;21840;44.920;8.616;2023-03-22T03:12:16;100347.66;;;14.27;53.28
35716;BME280;21840;44.920;8.616;2023-03-22T03:14:43;100349.72;;;14.41;52.59
35716;BME280;21840;44.920;8.616;2023-03-22T03:23:58;100357.09;;;14.30;53.41
35716;BME280;21840;44.920;8.616;2023-03-22T03:31:41;100358.25;;;13.93;52.69
35716;BME280;21840;44.920;8.616;2023-03-22T03:37:04;100364.81;;;13.89;52.76
35716;BME280;21840;44.920;8.616;2023-03-22T03:39:34;100358.63;;;13.72;52.69
35716;BME280;21840;44.920;8.616;2023-03-22T03:42:03;100365.56;;;13.73;52.99
35716;BME280;21840;44.920;8.616;2023-03-22T03:44:31;100365.47;;;13.38;53.39
35716;BME280;21840;44.920;8.616;2023-03-22T03:47:01;100363.53;;;13.67;53.13
35716;BME280;21840;44.920;8.616;2023-03-22T03:49:27;100359.34;;;13.82;52.36
35716;BME280;21840;44.920;8.616;2023-03-22T03:51:54;100361.88;;;13.92;52.26
35716;BME280;21840;44.920;8.616;2023-03-22T03:54:21;100362.84;;;13.65;52.31
35716;BME280;21840;44.920;8.616;2023-03-22T03:56:47;100368.56;;;13.78;52.18
35716;BME280;21840;44.920;8.616;2023-03-22T03:59:15;100362.44;;;13.51;52.61
35716;BME280;21840;44.920;8.616;2023-03-22T04:01:44;100366.16;;;13.67;52.64
35716;BME280;21840;44.920;8.616;2023-03-22T04:04:24;100370.34;;;13.77;52.54
35716;BME280;21840;44.920;8.616;2023-03-22T04:07:02;100368.84;;;13.75;52.50
35716;BME280;21840;44.920;8.616;2023-03-22T04:09:34;100372.34;;;13.57;53.25
35716;BME280;21840;44.920;8.616;2023-03-22T04:12:15;100385.88;;;13.54;52.90
35716;BME280;21840;44.920;8.616;2023-03-22T04:14:46;100376.22;;;13.45;52.50
35716;BME280;21840;44.920;8.616;2023-03-22T04:17:20;100380.69;;;13.27;52.56
35716;BME280;21840;44.920;8.616;2023-03-22T04:19:46;100382.34;;;13.28;52.60
35716;BME280;21840;44.920;8.616;2023-03-22T04:22:12;100373.72;;;13.08;52.64
35716;BME280;21840;44.920;8.616;2023-03-22T04:24:40;100378.31;;;12.70;53.63
35716;BME280;21840;44.920;8.616;2023-03-22T04:27:06;100376.91;;;12.76;53.33
35716;BME280;21840;44.920;8.616;2023-03-22T04:29:45;100371.44;;;12.59;53.49
35716;BME280;21840;44.920;8.616;2023-03-22T04:32:33;100371.38;;;12.69;53.60
35716;BME280;21840;44.920;8.616;2023-03-22T04:34:59;100365.97;;;12.43;54.24
35716;BME280;21840;44.920;8.616;2023-03-22T04:37:24;100372.25;;;12.60;53.44
35716;BME280;21840;44.920;8.616;2023-03-22T04:39:56;100376.38;;;12.44;54.35
35716;BME280;21840;44.920;8.616;2023-03-22T04:42:34;100374.72;;;12.43;54.38
35716;BME280;21840;44.920;8.616;2023-03-22T04:45:14;100373.66;;;12.36;54.12
35716;BME280;21840;44.920;8.616;2023-03-22T04:47:42;100377.09;;;12.64;53.77
35716;BME280;21840;44.920;8.616;2023-03-22T04:50:09;100377.16;;;12.55;53.63
35716;BME280;21840;44.920;8.616;2023-03-22T04:52:44;100382.13;;;12.30;53.65
35716;BME280;21840;44.920;8.616;2023-03-22T04:55:09;100385.13;;;12.35;54.02
35716;BME280;21840;44.920;8.616;2023-03-22T04:57:35;100380.59;;;12.55;53.68
35716;BME280;21840;44.920;8.616;2023-03-22T05:00:01;100382.97;;;12.58;53.01
35716;BME280;21840;44.920;8.616;2023-03-22T05:02:30;100374.84;;;12.69;52.80
35716;BME280;21840;44.920;8.616;2023-03-22T05:04:56;100373.16;;;12.50;53.25
35716;BME280;21840;44.920;8.616;2023-03-22T05:07:32;100379.22;;;12.61;52.89
35716;BME280;21840;44.920;8.616;2023-03-22T05:10:00;100385.19;;;12.25;53.85
35716;BME280;21840;44.920;8.616;2023-03-22T05:12:25;100382.75;;;12.42;53.62
35716;BME280;21840;44.920;8.616;2023-03-22T05:15:13;100387.34;;;12.40;53.94
35716;BME280;21840;44.920;8.616;2023-03-22T05:17:40;100390.22;;;12.74;53.00
35716;BME280;21840;44.920;8.616;2023-03-22T05:20:06;100388.38;;;12.57;53.10
35716;BME280;21840;44.920;8.616;2023-03-22T05:22:33;100391.59;;;12.78;52.36
35716;BME280;21840;44.920;8.616;2023-03-22T05:25:04;100396.50;;;12.91;51.91
35716;BME280;21840;44.920;8.616;2023-03-22T05:27:30;100397.00;;;12.49;53.29
35716;BME280;21840;44.920;8.616;2023-03-22T05:30:07;100396.38;;;12.37;53.23
35716;BME280;21840;44.920;8.616;2023-03-22T05:32:45;100397.59;;;12.70;53.40
35716;BME280;21840;44.920;8.616;2023-03-22T05:35:12;100402.66;;;12.82;52.95
35716;BME280;21840;44.920;8.616;2023-03-22T05:37:42;100415.41;;;12.21;54.62
35716;BME280;21840;44.920;8.616;2023-03-22T05:40:10;100415.97;;;12.15;54.51
35716;BME280;21840;44.920;8.616;2023-03-22T05:42:43;100415.19;;;12.42;53.71
35716;BME280;21840;44.920;8.616;2023-03-22T05:45:17;100413.53;;;12.69;53.21
35716;BME280;21840;44.920;8.616;2023-03-22T05:47:47;100411.28;;;12.74;53.31
35716;BME280;21840;44.920;8.616;2023-03-22T05:50:20;100410.03;;;12.50;53.78
35716;BME280;21840;44.920;8.616;2023-03-22T05:52:47;100408.75;;;12.82;53.10
35716;BME280;21840;44.920;8.616;2023-03-22T05:55:31;100410.22;;;12.67;52.97
35716;BME280;21840;44.920;8.616;2023-03-22T05:58:00;100411.34;;;12.37;53.54
35716;BME280;21840;44.920;8.616;2023-03-22T06:00:28;100413.44;;;12.33;54.13
35716;BME280;21840;44.920;8.616;2023-03-22T06:03:14;100411.34;;;12.64;53.50
35716;BME280;21840;44.920;8.616;2023-03-22T06:05:43;100417.13;;;12.95;53.06
35716;BME280;21840;44.920;8.616;2023-03-22T06:08:11;100408.66;;;12.74;53.47
35716;BME280;21840;44.920;8.616;2023-03-22T06:10:36;100420.59;;;13.14;52.26
35716;BME280;21840;44.920;8.616;2023-03-22T06:13:02;100428.13;;;13.09;52.84
35716;BME280;21840;44.920;8.616;2023-03-22T06:15:31;100428.66;;;13.12;52.63
35716;BME280;21840;44.920;8.616;2023-03-22T06:18:23;100425.69;;;12.80;52.88
35716;BME280;21840;44.920;8.616;2023-03-22T06:20:56;100432.31;;;12.84;52.70
35716;BME280;21840;44.920;8.616;2023-03-22T06:23:22;100433.59;;;12.80;52.38
35716;BME280;21840;44.920;8.616;2023-03-22T06:25:48;100430.78;;;12.63;53.09
35716;BME280;21840;44.920;8.616;2023-03-22T06:28:15;100432.56;;;12.90;51.94
35716;BME280;21840;44.920;8.616;2023-03-22T06:30:48;100433.78;;;13.14;51.28
35716;BME280;21840;44.920;8.616;2023-03-22T06:33:26;100434.19;;;13.37;51.34
35716;BME280;21840;44.920;8.616;2023-03-22T06:35:58;100437.81;;;13.36;51.36
35716;BME280;21840;44.920;8.616;2023-03-22T06:38:31;100440.53;;;13.44;51.04
35716;BME280;21840;44.920;8.616;2023-03-22T06:40:56;100441.34;;;13.45;50.90
35716;BME280;21840;44.920;8.616;2023-03-22T06:43:22;100447.25;;;13.38;51.14
35716;BME280;21840;44.920;8.616;2023-03-22T06:45:50;100449.03;;;13.56;50.41
35716;BME280;21840;44.920;8.616;2023-03-22T06:48:22;100455.50;;;13.79;50.18
35716;BME280;21840;44.920;8.616;2023-03-22T06:51:07;100452.94;;;13.70;50.35
35716;BME280;21840;44.920;8.616;2023-03-22T06:53:34;100449.56;;;13.42;51.18
35716;BME280;21840;44.920;8.616;2023-03-22T06:56:02;100450.09;;;13.63;50.68
35716;BME280;21840;44.920;8.616;2023-03-22T06:58:28;100446.00;;;14.13;49.77
35716;BME280;21840;44.920;8.616;2023-03-22T07:00:55;100443.97;;;14.07;50.04
35716;BME280;21840;44.920;8.616;2023-03-22T07:03:22;100446.09;;;14.03;50.20
35716;BME280;21840;44.920;8.616;2023-03-22T07:06:06;100457.00;;;14.34;49.66
35716;BME280;21840;44.920;8.616;2023-03-22T07:08:35;100464.31;;;13.88;50.34
35716;BME280;21840;44.920;8.616;2023-03-22T07:11:02;100459.75;;;14.24;50.14
35716;BME280;21840;44.920;8.616;2023-03-22T07:13:28;100461.19;;;14.45;49.82
35716;BME280;21840;44.920;8.616;2023-03-22T07:16:00;100466.22;;;14.56;49.61
35716;BME280;21840;44.920;8.616;2023-03-22T07:18:34;100474.47;;;14.53;49.34
35716;BME280;21840;44.920;8.616;2023-03-22T07:21:00;100461.28;;;15.04;48.68
35716;BME280;21840;44.920;8.616;2023-03-22T07:23:26;100463.03;;;14.79;49.36
35716;BME280;21840;44.920;8.616;2023-03-22T07:25:56;100466.78;;;15.19;48.46
35716;BME280;21840;44.920;8.616;2023-03-22T07:28:30;100472.25;;;15.34;48.20
35716;BME280;21840;44.920;8.616;2023-03-22T07:31:05;100474.59;;;15.53;47.76
35716;BME280;21840;44.920;8.616;2023-03-22T07:33:52;100480.59;;;15.71;47.60
35716;BME280;21840;44.920;8.616;2023-03-22T07:36:20;100474.63;;;15.86;47.17
35716;BME280;21840;44.920;8.616;2023-03-22T07:38:49;100483.38;;;15.70;47.57
35716;BME280;21840;44.920;8.616;2023-03-22T07:41:22;100481.56;;;15.87;47.13
35716;BME280;21840;44.920;8.616;2023-03-22T07:44:08;100484.88;;;15.89;47.33
35716;BME280;21840;44.920;8.616;2023-03-22T07:46:39;100486.50;;;16.14;46.88
35716;BME280;21840;44.920;8.616;2023-03-22T07:49:18;100487.16;;;16.25;46.46
35716;BME280;21840;44.920;8.616;2023-03-22T07:52:07;100495.09;;;16.33;46.37
35716;BME280;21840;44.920;8.616;2023-03-22T07:54:32;100501.06;;;16.27;46.67
35716;BME280;21840;44.920;8.616;2023-03-22T07:56:59;100501.88;;;16.27;46.32
35716;BME280;21840;44.920;8.616;2023-03-22T07:59:25;100505.88;;;16.07;46.63
35716;BME280;21840;44.920;8.616;2023-03-22T08:01:52;100513.50;;;16.02;46.92
35716;BME280;21840;44.920;8.616;2023-03-22T08:04:25;100505.19;;;16.46;45.97
35716;BME280;21840;44.920;8.616;2023-03-22T08:06:58;100511.22;;;16.71;45.65
35716;BME280;21840;44.920;8.616;2023-03-22T08:09:26;100513.19;;;16.77;45.62
35716;BME280;21840;44.920;8.616;2023-03-22T08:11:51;100513.72;;;16.64;45.88
35716;BME280;21840;44.920;8.616;2023-03-22T08:14:17;100507.50;;;16.41;46.43
35716;BME280;21840;44.920;8.616;2023-03-22T08:16:43;100502.31;;;16.64;46.30
35716;BME280;21840;44.920;8.616;2023-03-22T08:19:12;100504.59;;;17.14;45.48
35716;BME280;21840;44.920;8.616;2023-03-22T08:21:38;100512.13;;;17.34;45.06
35716;BME280;21840;44.920;8.616;2023-03-22T08:24:07;100501.63;;;17.40;45.29
35716;BME280;21840;44.920;8.616;2023-03-22T08:26:49;100505.63;;;17.36;45.46
35716;BME280;21840;44.920;8.616;2023-03-22T08:29:35;100507.69;;;17.26;45.55
35716;BME280;21840;44.920;8.616;2023-03-22T08:32:01;100506.97;;;17.32;45.15
35716;BME280;21840;44.920;8.616;2023-03-22T08:34:30;100504.03;;;17.27;45.90
35716;BME280;21840;44.920;8.616;2023-03-22T08:36:55;100507.19;;;17.54;45.38
35716;BME280;21840;44.920;8.616;2023-03-22T08:39:21;100496.50;;;17.62;45.05
35716;BME280;21840;44.920;8.616;2023-03-22T08:42:08;100495.56;;;17.78;44.73
35716;BME280;21840;44.920;8.616;2023-03-22T08:44:34;100494.91;;;17.76;44.87
35716;BME280;21840;44.920;8.616;2023-03-22T08:47:02;100502.34;;;17.57;45.17
35716;BME280;21840;44.920;8.616;2023-03-22T08:49:29;100506.88;;;17.49;45.26
35716;BME280;21840;44.920;8.616;2023-03-22T08:52:00;100501.69;;;17.78;44.88
35716;BME280;21840;44.920;8.616;2023-03-22T08:54:40;100495.97;;;17.89;44.85
35716;BME280;21840;44.920;8.616;2023-03-22T08:57:06;100498.50;;;18.06;44.03
35716;BME280;21840;44.920;8.616;2023-03-22T08:59:49;100499.34;;;17.83;44.90
35716;BME280;21840;44.920;8.616;2023-03-22T09:02:25;100499.78;;;18.10;44.28
35716;BME280;21840;44.920;8.616;2023-03-22T09:04:51;100504.66;;;18.36;43.92
35716;BME280;21840;44.920;8.616;2023-03-22T09:07:18;100499.06;;;18.16;44.21
35716;BME280;21840;44.920;8.616;2023-03-22T09:09:51;100507.97;;;17.85;44.74
35716;BME280;21840;44.920;8.616;2023-03-22T09:12:17;100494.22;;;18.20;43.97
35716;BME280;21840;44.920;8.616;2023-03-22T09:14:43;100502.47;;;18.69;42.93
35716;BME280;21840;44.920;8.616;2023-03-22T09:17:11;100502.66;;;18.68;42.76
35716;BME280;21840;44.920;8.616;2023-03-22T09:19:36;100499.34;;;18.95;42.57
35716;BME280;21840;44.920;8.616;2023-03-22T09:22:02;100497.50;;;18.66;43.46
35716;BME280;21840;44.920;8.616;2023-03-22T09:24:45;100500.81;;;18.98;43.12
35716;BME280;21840;44.920;8.616;2023-03-22T09:27:11;100502.25;;;19.15;42.79
35716;BME280;21840;44.920;8.616;2023-03-22T09:29:36;100501.81;;;19.33;42.46
35716;BME280;21840;44.920;8.616;2023-03-22T09:32:06;100507.16;;;19.33;42.30
35716;BME280;21840;44.920;8.616;2023-03-22T09:34:35;100501.59;;;19.50;41.69
35716;BME280;21840;44.920;8.616;2023-03-22T09:37:02;100497.56;;;19.17;41.50
35716;BME280;21840;44.920;8.616;2023-03-22T09:39:39;100496.81;;;19.67;40.84
35716;BME280;21840;44.920;8.616;2023-03-22T09:42:24;100500.03;;;19.77;40.69
35716;BME280;21840;44.920;8.616;2023-03-22T09:44:53;100492.81;;;19.71;41.19
35716;BME280;21840;44.920;8.616;2023-03-22T09:47:36;100494.91;;;19.75;41.51
35716;BME280;21840;44.920;8.616;2023-03-22T09:50:11;100493.50;;;19.79;41.79
35716;BME280;21840;44.920;8.616;2023-03-22T09:52:38;100502.09;;;20.03;41.32
35716;BME280;21840;44.920;8.616;2023-03-22T09:55:20;100491.97;;;20.20;41.14
35716;BME280;21840;44.920;8.616;2023-03-22T10:00:44;100490.31;;;19.91;41.47
35716;BME280;21840;44.920;8.616;2023-03-22T10:06:02;100489.25;;;19.85;41.73
35716;BME280;21840;44.920;8.616;2023-03-22T10:11:28;100473.72;;;20.23;40.97
35716;BME280;21840;44.920;8.616;2023-03-22T10:14:07;100472.03;;;20.16;40.87
35716;BME280;21840;44.920;8.616;2023-03-22T10:16:37;100468.34;;;20.52;40.36
35716;BME280;21840;44.920;8.616;2023-03-22T10:19:29;100466.69;;;20.51;40.29
35716;BME280;21840;44.920;8.616;2023-03-22T10:21:58;100461.72;;;20.76;39.89
35716;BME280;21840;44.920;8.616;2023-03-22T10:24:32;100468.84;;;20.62;40.18
35716;BME280;21840;44.920;8.616;2023-03-22T10:26:58;100464.16;;;20.71;39.97
35716;BME280;21840;44.920;8.616;2023-03-22T10:29:40;100464.56;;;20.74;40.22
35716;BME280;21840;44.920;8.616;2023-03-22T10:33:03;100457.41;;;20.81;40.17
35716;BME280;21840;44.920;8.616;2023-03-22T10:35:04;100459.94;;;20.96;39.80
35716;BME280;21840;44.920;8.616;2023-03-22T10:37:33;100454.75;;;20.75;40.23
35716;BME280;21840;44.920;8.616;2023-03-22T10:40:03;100464.56;;;20.74;40.10
35716;BME280;21840;44.920;8.616;2023-03-22T10:42:35;100452.16;;;20.95;39.95
35716;BME280;21840;44.920;8.616;2023-03-22T10:45:06;100447.47;;;21.10;39.50
35716;BME280;21840;44.920;8.616;2023-03-22T10:47:39;100453.66;;;21.30;39.01
35716;BME280;21840;44.920;8.616;2023-03-22T10:50:12;100444.59;;;21.18;39.01
35716;BME280;21840;44.920;8.616;2023-03-22T10:53:00;100446.69;;;21.29;38.81
35716;BME280;21840;44.920;8.616;2023-03-22T10:55:28;100432.47;;;21.29;37.50
35716;BME280;21840;44.920;8.616;2023-03-22T10:58:01;100439.53;;;21.50;37.24
35716;BME280;21840;44.920;8.616;2023-03-22T11:00:34;100434.34;;;21.22;37.33
35716;BME280;21840;44.920;8.616;2023-03-22T11:03:00;100430.28;;;21.46;36.61
35716;BME280;21840;44.920;8.616;2023-03-22T11:05:28;100428.44;;;21.40;36.67
35716;BME280;21840;44.920;8.616;2023-03-22T11:07:56;100422.69;;;21.63;36.03
35716;BME280;21840;44.920;8.616;2023-03-22T11:10:28;100416.09;;;21.65;35.04
35716;BME280;21840;44.920;8.616;2023-03-22T11:15:33;100409.72;;;21.80;33.84
35716;BME280;21840;44.920;8.616;2023-03-22T11:18:04;100408.72;;;21.67;34.11
35716;BME280;21840;44.920;8.616;2023-03-22T11:20:31;100400.47;;;21.62;34.27
35716;BME280;21840;44.920;8.616;2023-03-22T11:23:03;100395.72;;;21.91;34.10
35716;BME280;21840;44.920;8.616;2023-03-22T11:25:32;100396.97;;;21.75;34.14
35716;BME280;21840;44.920;8.616;2023-03-22T11:29:04;100393.81;;;22.11;33.44
35716;BME280;21840;44.920;8.616;2023-03-22T11:30:57;100394.84;;;22.24;32.73
35716;BME280;21840;44.920;8.616;2023-03-22T11:33:24;100384.34;;;22.15;32.32
35716;BME280;21840;44.920;8.616;2023-03-22T11:35:57;100387.44;;;22.19;32.01
35716;BME280;21840;44.920;8.616;2023-03-22T11:38:28;100383.97;;;21.98;32.36
35716;BME280;21840;44.920;8.616;2023-03-22T11:41:02;100384.31;;;22.35;32.28
35716;BME280;21840;44.920;8.616;2023-03-22T11:43:40;100388.22;;;22.39;32.52
35716;BME280;21840;44.920;8.616;2023-03-22T11:46:09;100381.53;;;22.55;32.23
35716;BME280;21840;44.920;8.616;2023-03-22T11:48:39;100380.03;;;22.66;31.64
35716;BME280;21840;44.920;8.616;2023-03-22T11:51:12;100378.41;;;22.65;31.41
35716;BME280;21840;44.920;8.616;2023-03-22T11:53:41;100375.47;;;22.73;31.33
35716;BME280;21840;44.920;8.616;2023-03-22T11:56:09;100374.03;;;22.77;31.21
35716;BME280;21840;44.920;8.616;2023-03-22T12:01:04;100378.56;;;22.32;31.26
35716;BME280;21840;44.920;8.616;2023-03-22T12:03:37;100367.03;;;22.31;31.18
35716;BME280;21840;44.920;8.616;2023-03-22T12:06:07;100368.66;;;22.77;31.15
35716;BME280;21840;44.920;8.616;2023-03-22T12:08:50;100361.53;;;22.96;31.06
35716;BME280;21840;44.920;8.616;2023-03-22T12:13:51;100354.47;;;23.09;30.64
35716;BME280;21840;44.920;8.616;2023-03-22T12:16:27;100358.38;;;23.13;30.77
35716;BME280;21840;44.920;8.616;2023-03-22T12:19:10;100353.50;;;23.03;30.62
35716;BME280;21840;44.920;8.616;2023-03-22T12:21:37;100346.50;;;23.02;30.75
35716;BME280;21840;44.920;8.616;2023-03-22T12:24:24;100347.88;;;23.11;30.39
35716;BME280;21840;44.920;8.616;2023-03-22T12:26:52;100348.25;;;23.15;30.21
35716;BME280;21840;44.920;8.616;2023-03-22T12:29:20;100337.88;;;22.93;30.09
35716;BME280;21840;44.920;8.616;2023-03-22T12:32:02;100334.31;;;23.31;29.42
35716;BME280;21840;44.920;8.616;2023-03-22T12:34:35;100327.94;;;23.51;29.38
35716;BME280;21840;44.920;8.616;2023-03-22T12:37:06;100323.00;;;23.54;28.99
35716;BME280;21840;44.920;8.616;2023-03-22T12:39:44;100319.31;;;23.48;29.15
35716;BME280;21840;44.920;8.616;2023-03-22T12:42:20;100315.22;;;23.46;29.38
35716;BME280;21840;44.920;8.616;2023-03-22T12:44:47;100310.28;;;23.43;29.47
35716;BME280;21840;44.920;8.616;2023-03-22T12:47:22;100319.03;;;23.57;28.99
35716;BME280;21840;44.920;8.616;2023-03-22T12:52:41;100306.50;;;23.51;28.21
35716;BME280;21840;44.920;8.616;2023-03-22T12:55:17;100299.53;;;23.68;28.35
35716;BME280;21840;44.920;8.616;2023-03-22T12:57:44;100302.16;;;23.31;28.14
35716;BME280;21840;44.920;8.616;2023-03-22T13:00:16;100302.22;;;23.68;27.55
35716;BME280;21840;44.920;8.616;2023-03-22T13:02:56;100300.97;;;23.27;27.22
35716;BME280;21840;44.920;8.616;2023-03-22T13:05:26;100298.34;;;23.64;27.38
35716;BME280;21840;44.920;8.616;2023-03-22T13:07:53;100295.09;;;23.80;27.95
35716;BME280;21840;44.920;8.616;2023-03-22T13:23:57;100274.38;;;23.69;27.91
35716;BME280;21840;44.920;8.616;2023-03-22T13:29:14;100266.41;;;23.44;28.63
35716;BME280;21840;44.920;8.616;2023-03-22T13:34:19;100264.69;;;23.68;28.59
35716;BME280;21840;44.920;8.616;2023-03-22T13:36:51;100253.69;;;23.95;28.23
35716;BME280;21840;44.920;8.616;2023-03-22T13:39:19;100253.50;;;23.71;28.65
35716;BME280;21840;44.920;8.616;2023-03-22T13:41:48;100250.31;;;23.99;28.41
35716;BME280;21840;44.920;8.616;2023-03-22T13:44:29;100244.63;;;24.07;28.74
35716;BME280;21840;44.920;8.616;2023-03-22T13:46:59;100250.50;;;24.16;28.46
35716;BME280;21840;44.920;8.616;2023-03-22T13:51:51;100238.06;;;24.03;28.50
35716;BME280;21840;44.920;8.616;2023-03-22T13:54:20;100237.78;;;24.11;28.06
35716;BME280;21840;44.920;8.616;2023-03-22T13:56:57;100233.56;;;24.16;28.02
35716;BME280;21840;44.920;8.616;2023-03-22T14:04:51;100225.31;;;24.17;27.90
35716;BME280;21840;44.920;8.616;2023-03-22T14:07:28;100228.75;;;24.06;28.00
35716;BME280;21840;44.920;8.616;2023-03-22T14:10:01;100216.41;;;24.05;28.32
35716;BME280;21840;44.920;8.616;2023-03-22T14:12:35;100213.78;;;24.28;27.80
35716;BME280;21840;44.920;8.616;2023-03-22T14:15:15;100207.06;;;24.38;27.84
35716;BME280;21840;44.920;8.616;2023-03-22T14:17:56;100199.72;;;24.45;27.32
35716;BME280;21840;44.920;8.616;2023-03-22T14:20:24;100197.53;;;24.53;27.21
35716;BME280;21840;44.920;8.616;2023-03-22T14:22:53;100200.84;;;24.25;27.18
35716;BME280;21840;44.920;8.616;2023-03-22T14:25:25;100190.63;;;24.04;27.58
35716;BME280;21840;44.920;8.616;2023-03-22T14:27:51;100184.41;;;24.33;27.03
35716;BME280;21840;44.920;8.616;2023-03-22T14:30:26;100192.44;;;24.33;27.14
35716;BME280;21840;44.920;8.616;2023-03-22T14:32:57;100179.09;;;24.15;27.68
35716;BME280;21840;44.920;8.616;2023-03-22T14:35:39;100177.91;;;24.11;27.57
35716;BME280;21840;44.920;8.616;2023-03-22T14:38:17;100176.59;;;24.32;27.47
35716;BME280;21840;44.920;8.616;2023-03-22T14:40:43;100179.81;;;24.52;27.88
35716;BME280;21840;44.920;8.616;2023-03-22T14:45:42;100172.69;;;24.93;26.58
35716;BME280;21840;44.920;8.616;2023-03-22T14:48:22;100164.03;;;25.03;26.18
35716;BME280;21840;44.920;8.616;2023-03-22T14:50:51;100159.59;;;24.50;26.77